Time;durP1;ratioP1;P1;durP2;ratioP2;P2;SDS_P1;SDS_P2;PMS_P1;PMS_P2;Temp;Humidity;BMP_temperature;BMP_pressure;BME280_temperature;BME280_humidity;BME280_pressure;Samples;Min_cycle;Max_cycle;Signal;HPM_P1;HPM_P2
2022/05/28 00:00:41;;;;;;;;;;;10.90;2.20;;;;;;5114258;28;19920;-82
2022/05/28 00:03:06;;;;;;;;;;;10.90;43.70;;;;;;5133768;27;20399;-82
2022/05/28 00:05:32;;;;;;;;;;;10.90;41.20;;;;;;5137125;27;19923;-82
2022/05/28 00:07:58;;;;;;;;;;;10.90;85.20;;;;;;5134537;27;20370;-83
2022/05/28 00:10:23;;;;;;;;;;;10.80;99.90;;;;;;5117322;28;20037;-84
2022/05/28 00:12:49;;;;;;;;;;;10.80;99.90;;;;;;5129607;27;19911;-82
2022/05/28 00:15:15;;;;;;;;;;;10.80;99.90;;;;;;5124185;28;19915;-82
2022/05/28 00:17:41;;;;;;;;;;;10.80;99.90;;;;;;5111711;28;19919;-82
2022/05/28 00:20:07;;;;;;;;;;;10.80;99.90;;;;;;5136742;28;20386;-82
2022/05/28 00:22:40;;;;;;;;;;;10.70;99.90;;;;;;5118898;28;19918;-82
2022/05/28 00:25:06;;;;;;;;;;;10.70;99.90;;;;;;5118251;28;19912;-82
2022/05/28 00:27:31;;;;;;;;;;;10.70;99.90;;;;;;5129532;27;19943;-82
2022/05/28 00:29:57;;;;;;;;;;;10.70;99.90;;;;;;5121430;27;19922;-82
2022/05/28 00:32:23;;;;;;;;;;;10.70;99.90;;;;;;5118427;27;19933;-82
2022/05/28 00:34:49;;;;;;;;;;;10.60;99.90;;;;;;5122219;27;19934;-82
2022/05/28 00:37:14;;;;;;;;;;;10.60;99.90;;;;;;5115088;27;19911;-82
2022/05/28 00:39:40;;;;;;;;;;;10.60;99.90;;;;;;5139964;27;19974;-81
2022/05/28 00:42:06;;;;;;;;;;;10.60;99.90;;;;;;5113756;27;20443;-82
2022/05/28 00:44:31;;;;;;;;;;;10.60;99.90;;;;;;5133229;27;19912;-82
2022/05/28 00:46:59;;;;;;;;;;;10.50;1.00;;;;;;5122626;27;19949;-82
2022/05/28 00:49:28;;;;;;;;;;;10.50;1.00;;;;;;5139638;27;19918;-83
2022/05/28 00:51:55;;;;;;;;;;;10.50;1.00;;;;;;5138534;27;20440;-82
2022/05/28 00:54:20;;;;;;;;;;;10.50;1.00;;;;;;5119391;27;19971;-82
2022/05/28 00:56:46;;;;;;;;;;;10.50;1.00;;;;;;5136457;27;19912;-82
2022/05/28 00:59:12;;;;;;;;;;;10.50;1.00;;;;;;5138992;27;19911;-81
2022/05/28 01:01:41;;;;;;;;;;;10.50;1.00;;;;;;5120404;27;20569;-82
2022/05/28 01:04:14;;;;;;;;;;;10.50;1.00;;;;;;5134121;27;19911;-82
2022/05/28 01:06:43;;;;;;;;;;;10.50;1.00;;;;;;5121010;27;20413;-82
2022/05/28 01:09:12;;;;;;;;;;;10.60;1.00;;;;;;5119481;27;19915;-82
2022/05/28 01:11:40;;;;;;;;;;;10.50;1.00;;;;;;5125577;27;20306;-82
2022/05/28 01:14:20;;;;;;;;;;;10.50;1.00;;;;;;5138247;27;19911;-82
2022/05/28 01:16:48;;;;;;;;;;;10.50;1.00;;;;;;5114055;27;19916;-82
2022/05/28 01:19:32;;;;;;;;;;;10.50;99.90;;;;;;5136108;27;20003;-82
2022/05/28 01:22:09;;;;;;;;;;;10.50;99.90;;;;;;5109011;27;19915;-82
2022/05/28 01:24:42;;;;;;;;;;;10.50;99.90;;;;;;5136174;27;19908;-81
2022/05/28 01:27:14;;;;;;;;;;;10.50;99.90;;;;;;5115512;27;20403;-82
2022/05/28 01:29:41;;;;;;;;;;;10.40;99.90;;;;;;5111749;27;19919;-82
2022/05/28 01:32:07;;;;;;;;;;;10.40;99.90;;;;;;5122387;27;19918;-81
2022/05/28 01:34:33;;;;;;;;;;;10.40;99.90;;;;;;5136704;27;19911;-82
2022/05/28 01:37:01;;;;;;;;;;;10.30;99.90;;;;;;5137674;27;19999;-81
2022/05/28 01:39:27;;;;;;;;;;;10.30;1.00;;;;;;5132935;27;19919;-83
2022/05/28 01:41:53;;;;;;;;;;;10.30;1.00;;;;;;5139633;27;19912;-82
2022/05/28 01:44:19;;;;;;;;;;;10.30;1.00;;;;;;5132234;27;20021;-82
2022/05/28 01:46:46;;;;;;;;;;;10.20;1.00;;;;;;5128816;27;19923;-82
2022/05/28 01:49:13;;;;;;;;;;;10.20;99.90;;;;;;5134636;27;19912;-82
2022/05/28 01:51:40;;;;;;;;;;;10.20;99.90;;;;;;5121818;27;19912;-82
2022/05/28 01:54:07;;;;;;;;;;;10.20;99.90;;;;;;5133435;27;19918;-83
2022/05/28 01:56:34;;;;;;;;;;;10.20;99.90;;;;;;5119670;27;20379;-83
2022/05/28 01:58:59;;;;;;;;;;;10.30;99.90;;;;;;5139183;27;19912;-82
2022/05/28 02:01:26;;;;;;;;;;;10.30;99.90;;;;;;5119733;27;20065;-82
2022/05/28 02:03:53;;;;;;;;;;;10.30;99.90;;;;;;5131566;27;19919;-82
2022/05/28 02:06:19;;;;;;;;;;;10.30;99.90;;;;;;5139025;27;19915;-83
2022/05/28 02:08:46;;;;;;;;;;;10.40;99.90;;;;;;5140457;27;20414;-82
2022/05/28 02:11:22;;;;;;;;;;;10.40;99.90;;;;;;5122751;27;19978;-82
2022/05/28 02:13:56;;;;;;;;;;;10.40;99.90;;;;;;5118094;27;19916;-82
2022/05/28 02:16:43;;;;;;;;;;;10.50;99.90;;;;;;5122893;27;19990;-82
2022/05/28 02:19:12;;;;;;;;;;;10.50;99.90;;;;;;5133440;27;19911;-82
2022/05/28 02:21:41;;;;;;;;;;;10.50;99.90;;;;;;5138197;27;19950;-82
2022/05/28 02:24:15;;;;;;;;;;;10.50;99.90;;;;;;5130751;27;19912;-82
2022/05/28 02:26:46;;;;;;;;;;;10.50;99.90;;;;;;5135248;27;19915;-82
2022/05/28 02:29:13;;;;;;;;;;;10.50;99.90;;;;;;5115150;28;19918;-81
2022/05/28 02:31:42;;;;;;;;;;;10.60;99.90;;;;;;5127571;27;20462;-82
2022/05/28 02:34:07;;;;;;;;;;;10.60;99.90;;;;;;5132143;27;19922;-82
2022/05/28 02:36:33;;;;;;;;;;;10.60;99.90;;;;;;5121301;27;19915;-83
2022/05/28 02:38:58;;;;;;;;;;;10.70;99.90;;;;;;5109114;27;20315;-82
2022/05/28 02:41:24;;;;;;;;;;;10.70;99.90;;;;;;5138808;27;19911;-82
2022/05/28 02:43:49;;;;;;;;;;;10.70;99.90;;;;;;5118377;27;20002;-82
2022/05/28 02:46:15;;;;;;;;;;;10.70;99.90;;;;;;5113035;27;19968;-82
2022/05/28 02:48:41;;;;;;;;;;;10.70;99.90;;;;;;5114885;27;19912;-82
2022/05/28 02:51:10;;;;;;;;;;;10.70;1.00;;;;;;5117381;27;19912;-82
2022/05/28 02:53:36;;;;;;;;;;;10.70;1.00;;;;;;5127613;27;19943;-82
2022/05/28 02:56:02;;;;;;;;;;;10.70;39.80;;;;;;5115143;27;19930;-83
2022/05/28 02:58:29;;;;;;;;;;;10.70;96.70;;;;;;5113472;28;19916;-82
2022/05/28 03:00:54;;;;;;;;;;;10.60;99.90;;;;;;5127081;27;19912;-82
2022/05/28 03:03:20;;;;;;;;;;;10.60;99.90;;;;;;5123802;27;19980;-81
2022/05/28 03:05:50;;;;;;;;;;;10.50;1.00;;;;;;5128902;27;19920;-82
2022/05/28 03:08:16;;;;;;;;;;;10.50;31.10;;;;;;5111588;27;19912;-82
2022/05/28 03:10:41;;;;;;;;;;;10.50;99.90;;;;;;5137674;27;19925;-82
2022/05/28 03:13:07;;;;;;;;;;;10.40;1.00;;;;;;5110796;28;20002;-81
2022/05/28 03:15:33;;;;;;;;;;;10.40;1.00;;;;;;5130209;27;20324;-82
2022/05/28 03:18:02;;;;;;;;;;;10.30;99.90;;;;;;5110149;27;19922;-81
2022/05/28 03:20:28;;;;;;;;;;;10.30;99.90;;;;;;5131266;27;19990;-81
2022/05/28 03:22:53;;;;;;;;;;;10.30;1.00;;;;;;5115455;27;19951;-81
2022/05/28 03:25:19;;;;;;;;;;;10.30;4.90;;;;;;5113162;27;19915;-81
2022/05/28 03:27:44;;;;;;;;;;;10.30;99.90;;;;;;5124265;27;19972;-82
2022/05/28 03:30:10;;;;;;;;;;;10.30;99.90;;;;;;5120923;27;20015;-81
2022/05/28 03:32:36;;;;;;;;;;;10.20;99.90;;;;;;5118966;27;19933;-82
2022/05/28 03:35:01;;;;;;;;;;;10.20;99.90;;;;;;5112453;28;20371;-82
2022/05/28 03:37:27;;;;;;;;;;;10.20;99.90;;;;;;5113506;28;19972;-81
2022/05/28 03:39:52;;;;;;;;;;;10.20;99.90;;;;;;5118330;28;20020;-81
2022/05/28 03:42:17;;;;;;;;;;;10.20;1.00;;;;;;5128667;27;20002;-81
2022/05/28 03:44:43;;;;;;;;;;;10.20;1.00;;;;;;5129912;27;19911;-81
2022/05/28 03:47:08;;;;;;;;;;;10.30;99.90;;;;;;5135936;27;19919;-81
2022/05/28 03:49:35;;;;;;;;;;;10.30;99.90;;;;;;5119836;28;19918;-83
2022/05/28 03:52:01;;;;;;;;;;;10.30;99.90;;;;;;5129849;27;20303;-81
2022/05/28 03:54:27;;;;;;;;;;;10.30;99.90;;;;;;5114104;28;19922;-81
2022/05/28 03:56:56;;;;;;;;;;;10.30;99.90;;;;;;5119903;27;19911;-81
2022/05/28 03:59:21;;;;;;;;;;;10.30;99.90;;;;;;5109691;28;19912;-82
2022/05/28 04:01:47;;;;;;;;;;;10.40;99.90;;;;;;5141760;27;19961;-82
2022/05/28 04:04:12;;;;;;;;;;;10.40;99.90;;;;;;5114456;28;19912;-82
2022/05/28 04:06:38;;;;;;;;;;;10.40;99.90;;;;;;5111391;27;19937;-82
2022/05/28 04:09:04;;;;;;;;;;;10.40;99.90;;;;;;5112563;27;19907;-81
2022/05/28 04:11:29;;;;;;;;;;;10.40;99.90;;;;;;5118235;27;19912;-81
2022/05/28 04:13:55;;;;;;;;;;;10.50;76.80;;;;;;5125052;27;19919;-82
2022/05/28 04:16:20;;;;;;;;;;;10.50;16.60;;;;;;5135813;27;19916;-82
2022/05/28 04:18:46;;;;;;;;;;;10.50;2.30;;;;;;5117072;27;19982;-82
2022/05/28 04:21:11;;;;;;;;;;;10.50;1.00;;;;;;5137221;27;19971;-81
2022/05/28 04:23:37;;;;;;;;;;;10.60;5.80;;;;;;5119087;27;19923;-81
2022/05/28 04:26:02;;;;;;;;;;;10.60;34.80;;;;;;5132161;27;19982;-82
2022/05/28 04:28:28;;;;;;;;;;;10.70;51.70;;;;;;5116108;27;20304;-81
2022/05/28 04:30:53;;;;;;;;;;;10.70;1.00;;;;;;5119466;27;19957;-81
2022/05/28 04:33:19;;;;;;;;;;;10.80;1.00;;;;;;5135201;27;20348;-81
2022/05/28 04:35:44;;;;;;;;;;;10.80;1.00;;;;;;5118204;27;19988;-82
2022/05/28 04:38:10;;;;;;;;;;;10.90;1.00;;;;;;5131924;27;19933;-82
2022/05/28 04:40:35;;;;;;;;;;;10.90;1.00;;;;;;5115643;27;19911;-82
2022/05/28 04:43:01;;;;;;;;;;;11.00;99.90;;;;;;5116555;27;19926;-82
2022/05/28 04:45:26;;;;;;;;;;;11.00;22.80;;;;;;5137229;27;20352;-82
2022/05/28 04:47:52;;;;;;;;;;;11.10;1.00;;;;;;5117165;27;19922;-82
2022/05/28 04:50:17;;;;;;;;;;;11.10;1.00;;;;;;5121458;27;19922;-82
2022/05/28 04:52:43;;;;;;;;;;;11.20;1.00;;;;;;5120285;27;19919;-81
2022/05/28 04:55:09;;;;;;;;;;;11.30;1.00;;;;;;5134456;27;20294;-81
2022/05/28 04:57:35;;;;;;;;;;;11.30;99.90;;;;;;5136076;27;19912;-81
2022/05/28 05:00:01;;;;;;;;;;;11.40;99.90;;;;;;5119102;27;19934;-82
2022/05/28 05:02:26;;;;;;;;;;;11.50;99.90;;;;;;5134648;27;19919;-81
2022/05/28 05:04:55;;;;;;;;;;;11.60;1.00;;;;;;5137578;27;19994;-81
2022/05/28 05:07:21;;;;;;;;;;;11.70;1.00;;;;;;5129808;27;20318;-81
2022/05/28 05:09:46;;;;;;;;;;;11.80;99.90;;;;;;5135166;27;19915;-82
2022/05/28 05:12:12;;;;;;;;;;;11.90;99.90;;;;;;5110813;27;19920;-82
2022/05/28 05:14:37;;;;;;;;;;;12.00;1.00;;;;;;5138694;27;19933;-83
2022/05/28 05:17:03;;;;;;;;;;;12.10;1.00;;;;;;5121004;27;19911;-82
2022/05/28 05:19:28;;;;;;;;;;;12.20;1.00;;;;;;5120463;27;19911;-82
2022/05/28 05:21:54;;;;;;;;;;;12.30;99.90;;;;;;5133974;27;19919;-82
2022/05/28 05:24:21;;;;;;;;;;;12.40;99.90;;;;;;5121303;27;19963;-82
2022/05/28 05:26:46;;;;;;;;;;;12.40;99.90;;;;;;5117893;27;19920;-81
2022/05/28 05:29:12;;;;;;;;;;;12.50;99.90;;;;;;5109286;27;19912;-82
2022/05/28 05:31:39;;;;;;;;;;;12.60;56.30;;;;;;5121375;27;19983;-83
2022/05/28 05:34:05;;;;;;;;;;;12.70;2.20;;;;;;5116409;27;19919;-82
2022/05/28 05:36:30;;;;;;;;;;;12.80;1.00;;;;;;5108834;28;19912;-81
2022/05/28 05:38:55;;;;;;;;;;;13.00;1.00;;;;;;5112381;27;19942;-81
2022/05/28 05:41:21;;;;;;;;;;;13.20;1.00;;;;;;5127122;27;19971;-82
2022/05/28 05:43:46;;;;;;;;;;;13.30;99.90;;;;;;5132260;27;19923;-83
2022/05/28 05:46:13;;;;;;;;;;;13.50;99.90;;;;;;5134333;27;19920;-84
2022/05/28 05:48:39;;;;;;;;;;;13.60;1.00;;;;;;5116747;27;19964;-83
2022/05/28 05:51:05;;;;;;;;;;;13.70;1.00;;;;;;5133036;27;19923;-83
2022/05/28 05:53:31;;;;;;;;;;;13.80;1.00;;;;;;5137906;27;19912;-83
2022/05/28 05:55:56;;;;;;;;;;;14.10;99.90;;;;;;5113706;27;19911;-83
2022/05/28 05:58:22;;;;;;;;;;;14.50;99.90;;;;;;5133585;27;20292;-83
2022/05/28 06:00:47;;;;;;;;;;;15.40;1.00;;;;;;5121877;27;20026;-84
2022/05/28 06:03:17;;;;;;;;;;;17.50;99.90;;;;;;5132356;27;19912;-84
2022/05/28 06:05:43;;;;;;;;;;;20.30;99.90;;;;;;5117924;27;20023;-84
2022/05/28 06:08:08;;;;;;;;;;;23.00;99.90;;;;;;5133195;27;19916;-84
2022/05/28 06:10:34;;;;;;;;;;;25.10;99.90;;;;;;5143689;27;19920;-85
2022/05/28 06:12:59;;;;;;;;;;;27.20;99.90;;;;;;5111698;27;19994;-83
2022/05/28 06:15:24;;;;;;;;;;;28.30;99.90;;;;;;5127928;27;19919;-82
2022/05/28 06:17:50;;;;;;;;;;;29.30;99.90;;;;;;5150378;27;19952;-80
2022/05/28 06:20:15;;;;;;;;;;;30.30;99.90;;;;;;5136723;27;19991;-80
2022/05/28 06:22:41;;;;;;;;;;;31.60;99.90;;;;;;5116570;27;19916;-80
2022/05/28 06:25:07;;;;;;;;;;;32.80;99.90;;;;;;5108554;27;19919;-81
2022/05/28 06:27:33;;;;;;;;;;;33.80;99.90;;;;;;5115500;27;20006;-81
2022/05/28 06:29:58;;;;;;;;;;;34.40;99.90;;;;;;5133213;27;19911;-81
2022/05/28 06:32:24;;;;;;;;;;;31.60;99.90;;;;;;5143811;27;19907;-81
2022/05/28 06:34:49;;;;;;;;;;;31.00;99.90;;;;;;5125031;27;19935;-81
2022/05/28 06:37:15;;;;;;;;;;;31.00;99.90;;;;;;5125084;27;19912;-81
2022/05/28 06:39:41;;;;;;;;;;;30.50;99.90;;;;;;5138204;27;19969;-83
2022/05/28 06:42:07;;;;;;;;;;;27.40;99.90;;;;;;5105567;28;20116;-83
2022/05/28 06:44:32;;;;;;;;;;;26.20;99.90;;;;;;5124338;28;19915;-82
2022/05/28 06:46:58;;;;;;;;;;;24.90;99.90;;;;;;5124398;28;19923;-83
2022/05/28 06:49:24;;;;;;;;;;;26.30;99.90;;;;;;5123639;28;19908;-83
2022/05/28 06:51:50;;;;;;;;;;;24.80;99.90;;;;;;5123805;28;20286;-82
2022/05/28 06:54:16;;;;;;;;;;;23.10;99.90;;;;;;5105286;28;20387;-82
2022/05/28 06:56:42;;;;;;;;;;;22.00;99.90;;;;;;5104604;28;19979;-82
2022/05/28 06:59:07;;;;;;;;;;;22.40;99.90;;;;;;5104288;28;20364;-82
2022/05/28 07:01:32;;;;;;;;;;;21.00;99.90;;;;;;5103990;28;19908;-83
2022/05/28 07:03:58;;;;;;;;;;;22.90;99.90;;;;;;5103174;28;20416;-83
2022/05/28 07:06:23;;;;;;;;;;;26.50;99.90;;;;;;5122556;28;19908;-83
2022/05/28 07:08:49;;;;;;;;;;;28.40;99.90;;;;;;5124016;28;19907;-83
2022/05/28 07:11:14;;;;;;;;;;;31.90;99.90;;;;;;5123563;28;20359;-81
2022/05/28 07:13:40;;;;;;;;;;;34.20;99.90;;;;;;5105108;28;19963;-81
2022/05/28 07:16:07;;;;;;;;;;;37.80;99.90;;;;;;5104749;28;19912;-82
2022/05/28 07:18:33;;;;;;;;;;;39.30;99.90;;;;;;5123947;28;19908;-81
2022/05/28 07:20:59;;;;;;;;;;;38.00;99.90;;;;;;5105270;28;19908;-81
2022/05/28 07:23:26;;;;;;;;;;;39.40;99.90;;;;;;5106820;28;20335;-81
2022/05/28 07:25:59;;;;;;;;;;;40.30;99.90;;;;;;5104975;28;19907;-81
2022/05/28 07:28:24;;;;;;;;;;;37.50;99.90;;;;;;5121928;28;19915;-80
2022/05/28 07:30:51;;;;;;;;;;;35.00;99.90;;;;;;5104274;28;19908;-80
2022/05/28 07:33:17;;;;;;;;;;;33.30;99.90;;;;;;5104690;28;19912;-80
2022/05/28 07:35:42;;;;;;;;;;;31.00;99.90;;;;;;5104468;28;20352;-81
2022/05/28 07:38:08;;;;;;;;;;;31.60;99.90;;;;;;5103956;28;20068;-81
2022/05/28 07:40:34;;;;;;;;;;;35.00;99.90;;;;;;5122710;28;19918;-80
2022/05/28 07:42:59;;;;;;;;;;;32.80;99.90;;;;;;5103997;28;20399;-83
2022/05/28 07:45:25;;;;;;;;;;;30.60;99.90;;;;;;5103326;28;19943;-82
2022/05/28 07:47:51;;;;;;;;;;;29.00;99.90;;;;;;5122361;28;19968;-83
2022/05/28 07:50:16;;;;;;;;;;;31.90;99.90;;;;;;5104234;28;19923;-83
2022/05/28 07:52:42;;;;;;;;;;;33.20;99.90;;;;;;5122605;28;19915;-81
2022/05/28 07:55:10;;;;;;;;;;;37.40;99.90;;;;;;5104069;28;19908;-81
2022/05/28 07:57:35;;;;;;;;;;;38.20;99.90;;;;;;5103754;28;19912;-80
2022/05/28 08:00:02;;;;;;;;;;;35.50;99.90;;;;;;5103902;28;19919;-80
2022/05/28 08:02:28;;;;;;;;;;;35.60;99.90;;;;;;5122170;28;19908;-80
2022/05/28 08:04:53;;;;;;;;;;;36.40;99.90;;;;;;5104353;28;19915;-80
2022/05/28 08:07:19;;;;;;;;;;;33.70;99.90;;;;;;5121553;28;19991;-80
2022/05/28 08:09:44;;;;;;;;;;;33.30;99.90;;;;;;5103701;28;19908;-80
2022/05/28 08:12:10;;;;;;;;;;;33.00;99.90;;;;;;5121491;28;19915;-80
2022/05/28 08:14:36;;;;;;;;;;;30.30;96.00;;;;;;5103304;28;19933;-79
2022/05/28 08:17:01;;;;;;;;;;;28.50;95.10;;;;;;5121167;28;19912;-82
2022/05/28 08:19:27;;;;;;;;;;;26.90;89.20;;;;;;5103250;28;19915;-82
2022/05/28 08:24:37;;;;;;;;;;;24.30;79.00;;;;;;5120917;28;20318;-81
2022/05/28 08:27:02;;;;;;;;;;;23.70;76.80;;;;;;5103248;28;19908;-81
2022/05/28 08:29:29;;;;;;;;;;;24.20;83.00;;;;;;5121686;28;19908;-81
2022/05/28 08:31:54;;;;;;;;;;;26.00;91.30;;;;;;5103619;28;19907;-82
2022/05/28 08:34:20;;;;;;;;;;;31.90;99.90;;;;;;5121594;28;20002;-82
2022/05/28 08:36:45;;;;;;;;;;;35.40;99.90;;;;;;5103582;28;19939;-82
2022/05/28 08:39:10;;;;;;;;;;;37.10;99.90;;;;;;5123719;28;19907;-82
2022/05/28 08:41:43;;;;;;;;;;;39.20;99.90;;;;;;5124367;28;19915;-82
2022/05/28 08:44:09;;;;;;;;;;;38.50;99.90;;;;;;5142540;28;19908;-82
2022/05/28 08:46:35;;;;;;;;;;;40.60;99.90;;;;;;5123807;28;19937;-81
2022/05/28 08:49:01;;;;;;;;;;;42.40;99.90;;;;;;5124430;28;19911;-82
2022/05/28 08:51:46;;;;;;;;;;;42.10;99.90;;;;;;5143462;28;19960;-82
2022/05/28 08:54:30;;;;;;;;;;;39.90;99.90;;;;;;5127387;27;19914;-82
2022/05/28 08:56:57;;;;;;;;;;;35.80;94.50;;;;;;5127400;27;19914;-82
2022/05/28 08:59:28;;;;;;;;;;;33.00;89.40;;;;;;5146428;27;19907;-82
2022/05/28 09:01:54;;;;;;;;;;;34.20;92.40;;;;;;5127554;27;19907;-81
2022/05/28 09:04:24;;;;;;;;;;;32.20;85.10;;;;;;5146135;27;19974;-82
2022/05/28 09:06:53;;;;;;;;;;;32.70;89.40;;;;;;5127489;27;20367;-82
2022/05/28 09:09:24;;;;;;;;;;;33.10;90.70;;;;;;5127910;27;20355;-82
2022/05/28 09:11:50;;;;;;;;;;;35.60;95.00;;;;;;5128302;27;19908;-83
2022/05/28 09:14:25;;;;;;;;;;;38.30;98.70;;;;;;5126525;27;19942;-83
2022/05/28 09:16:52;;;;;;;;;;;40.50;99.90;;;;;;5125438;27;20010;-83
2022/05/28 09:19:19;;;;;;;;;;;38.60;95.80;;;;;;5125652;27;19907;-83
2022/05/28 09:21:45;;;;;;;;;;;34.60;86.20;;;;;;5143589;27;19907;-82
2022/05/28 09:24:16;;;;;;;;;;;31.30;74.10;;;;;;5143174;27;20263;-82
2022/05/28 09:27:03;;;;;;;;;;;29.00;65.50;;;;;;5142649;27;19912;-83
2022/05/28 09:29:31;;;;;;;;;;;28.10;63.70;;;;;;5125065;27;19912;-84
2022/05/28 09:32:09;;;;;;;;;;;31.80;83.90;;;;;;5144919;27;19911;-82
2022/05/28 09:34:47;;;;;;;;;;;33.70;90.40;;;;;;5137636;27;19908;-82
2022/05/28 09:37:12;;;;;;;;;;;36.30;94.40;;;;;;5136667;27;20419;-82
2022/05/28 09:39:53;;;;;;;;;;;37.10;94.30;;;;;;5149983;27;19907;-82
2022/05/28 09:42:46;;;;;;;;;;;35.50;90.40;;;;;;5115928;28;19915;-81
2022/05/28 09:45:12;;;;;;;;;;;32.40;78.90;;;;;;5116278;28;19908;-82
2022/05/28 09:48:04;;;;;;;;;;;35.40;90.90;;;;;;5116803;28;19923;-82
2022/05/28 09:50:38;;;;;;;;;;;37.70;94.70;;;;;;5131106;28;19968;-83
2022/05/28 09:55:54;;;;;;;;;;;35.90;86.50;;;;;;5134495;28;20105;-82
2022/05/28 09:58:21;;;;;;;;;;;34.10;79.00;;;;;;5134042;28;20379;-82
2022/05/28 10:00:48;;;;;;;;;;;35.70;87.50;;;;;;5134133;28;19915;-82
2022/05/28 10:06:10;;;;;;;;;;;38.10;90.30;;;;;;5134087;28;19964;-83
2022/05/28 10:08:35;;;;;;;;;;;37.50;87.00;;;;;;5130707;28;20318;-84
2022/05/28 10:11:02;;;;;;;;;;;37.70;87.50;;;;;;5108920;28;19911;-84
2022/05/28 10:13:40;;;;;;;;;;;37.00;82.90;;;;;;5126823;28;19908;-83
2022/05/28 10:16:06;;;;;;;;;;;34.50;71.10;;;;;;5126146;28;19912;-83
2022/05/28 10:18:36;;;;;;;;;;;32.00;60.30;;;;;;5107777;28;19908;-82
2022/05/28 10:21:14;;;;;;;;;;;32.00;61.50;;;;;;5108315;28;19915;-83
2022/05/28 10:23:40;;;;;;;;;;;31.60;62.90;;;;;;5107701;28;19908;-82
2022/05/28 10:26:16;;;;;;;;;;;32.50;68.60;;;;;;5108076;28;20006;-83
2022/05/28 10:28:47;;;;;;;;;;;34.40;77.00;;;;;;5108299;28;19915;-83
2022/05/28 10:31:17;;;;;;;;;;;36.10;81.90;;;;;;5126705;28;19908;-83
2022/05/28 10:33:43;;;;;;;;;;;37.00;83.00;;;;;;5126828;28;19929;-83
2022/05/28 10:36:13;;;;;;;;;;;34.90;72.40;;;;;;5108659;28;20264;-84
2022/05/28 10:38:39;;;;;;;;;;;36.40;77.90;;;;;;5126635;28;19908;-84
2022/05/28 10:41:21;;;;;;;;;;;37.50;81.50;;;;;;5126285;27;20259;-84
2022/05/28 10:43:47;;;;;;;;;;;38.30;83.40;;;;;;5147221;27;19923;-83
2022/05/28 10:46:22;;;;;;;;;;;38.20;82.60;;;;;;5128170;27;19948;-83
2022/05/28 10:49:07;;;;;;;;;;;36.10;72.40;;;;;;5127595;27;19936;-83
2022/05/28 10:51:42;;;;;;;;;;;33.00;59.40;;;;;;5134542;27;20309;-83
2022/05/28 10:54:24;;;;;;;;;;;34.20;67.30;;;;;;5129640;27;20002;-84
2022/05/28 10:57:05;;;;;;;;;;;36.20;74.60;;;;;;5146194;27;19908;-84
2022/05/28 10:59:36;;;;;;;;;;;37.30;75.90;;;;;;5129058;27;19915;-83
2022/05/28 11:02:05;;;;;;;;;;;37.50;76.20;;;;;;5146697;27;20346;-84
2022/05/28 11:04:48;;;;;;;;;;;37.60;74.20;;;;;;5145883;27;19908;-83
2022/05/28 11:07:20;;;;;;;;;;;34.20;60.80;;;;;;5127584;27;19922;-82
2022/05/28 11:09:48;;;;;;;;;;;32.40;54.60;;;;;;5127438;27;19908;-83
2022/05/28 11:12:23;;;;;;;;;;;31.00;50.00;;;;;;5127518;27;19915;-83
2022/05/28 11:14:55;;;;;;;;;;;29.50;47.30;;;;;;5127681;27;19908;-83
2022/05/28 11:17:23;;;;;;;;;;;28.10;43.30;;;;;;5145089;27;19916;-82
2022/05/28 11:19:49;;;;;;;;;;;27.80;43.60;;;;;;5127609;27;20550;-84
2022/05/28 11:22:24;;;;;;;;;;;30.00;52.60;;;;;;5127958;27;19915;-83
2022/05/28 11:24:58;;;;;;;;;;;31.90;60.70;;;;;;5146441;27;19972;-83
2022/05/28 11:27:51;;;;;;;;;;;33.20;64.20;;;;;;5127478;27;19911;-82
2022/05/28 11:30:19;;;;;;;;;;;33.40;65.10;;;;;;5126749;27;19947;-82
2022/05/28 11:32:46;;;;;;;;;;;32.00;59.20;;;;;;5127873;27;19914;-83
2022/05/28 11:35:27;;;;;;;;;;;30.30;53.70;;;;;;5127201;27;19908;-82
2022/05/28 11:37:55;;;;;;;;;;;30.30;54.60;;;;;;5127376;28;19918;-83
2022/05/28 11:40:40;;;;;;;;;;;31.90;60.30;;;;;;5116401;28;19915;-83
2022/05/28 11:43:24;;;;;;;;;;;32.60;63.60;;;;;;5125632;28;19907;-83
2022/05/28 11:45:50;;;;;;;;;;;31.70;59.50;;;;;;5125135;28;19916;-83
2022/05/28 11:48:18;;;;;;;;;;;32.50;63.60;;;;;;5106852;28;19907;-83
2022/05/28 11:53:43;;;;;;;;;;;32.10;60.30;;;;;;5126300;28;19979;-83
2022/05/28 11:56:12;;;;;;;;;;;31.90;59.90;;;;;;5107305;28;19908;-83
2022/05/28 11:58:41;;;;;;;;;;;30.40;55.90;;;;;;5107446;28;20164;-82
2022/05/28 12:01:11;;;;;;;;;;;29.70;53.50;;;;;;5125144;28;19912;-83
2022/05/28 12:03:37;;;;;;;;;;;29.20;52.20;;;;;;5107099;28;19916;-83
2022/05/28 12:06:02;;;;;;;;;;;30.10;55.60;;;;;;5106586;28;19912;-83
2022/05/28 12:08:38;;;;;;;;;;;30.20;56.20;;;;;;5125490;28;19968;-83
2022/05/28 12:11:05;;;;;;;;;;;29.70;55.30;;;;;;5125391;28;19908;-82
2022/05/28 12:13:40;;;;;;;;;;;29.90;54.40;;;;;;5107393;28;20029;-82
2022/05/28 12:16:31;;;;;;;;;;;29.90;56.20;;;;;;5124931;28;19912;-83
2022/05/28 12:19:02;;;;;;;;;;;30.80;58.70;;;;;;5121979;28;19908;-83
2022/05/28 12:21:32;;;;;;;;;;;31.10;59.30;;;;;;5107905;28;19907;-83
2022/05/28 12:24:06;;;;;;;;;;;32.10;63.40;;;;;;5108232;28;19979;-84
2022/05/28 12:26:57;;;;;;;;;;;32.40;63.70;;;;;;5126015;28;19915;-83
2022/05/28 12:29:47;;;;;;;;;;;31.70;59.60;;;;;;5110603;28;19908;-83
2022/05/28 12:32:19;;;;;;;;;;;32.40;61.70;;;;;;5112244;28;19943;-84
2022/05/28 12:34:56;;;;;;;;;;;31.90;59.20;;;;;;5111607;28;20303;-82
2022/05/28 12:37:26;;;;;;;;;;;31.50;57.70;;;;;;5111073;28;19956;-82
2022/05/28 12:40:10;;;;;;;;;;;31.20;57.00;;;;;;5136931;27;19907;-83
2022/05/28 12:42:36;;;;;;;;;;;29.60;52.60;;;;;;5131500;27;20294;-82
2022/05/28 12:45:13;;;;;;;;;;;28.30;49.80;;;;;;5131026;27;19908;-82
2022/05/28 12:47:39;;;;;;;;;;;27.60;48.30;;;;;;5149205;27;19915;-82
2022/05/28 12:50:04;;;;;;;;;;;26.80;46.30;;;;;;5130810;27;19914;-82
2022/05/28 12:53:02;;;;;;;;;;;26.50;46.90;;;;;;5131023;27;20325;-82
2022/05/28 12:55:30;;;;;;;;;;;27.00;50.40;;;;;;5090651;27;19907;-82
2022/05/28 12:58:04;;;;;;;;;;;27.70;53.30;;;;;;5124540;27;19907;-81
2022/05/28 13:00:41;;;;;;;;;;;27.70;53.20;;;;;;5144239;27;19931;-81
2022/05/28 13:03:07;;;;;;;;;;;26.40;48.10;;;;;;5143626;27;19907;-81
2022/05/28 13:05:35;;;;;;;;;;;25.70;46.30;;;;;;5142991;27;19918;-81
2022/05/28 13:08:04;;;;;;;;;;;25.10;45.60;;;;;;5143178;27;19939;-81
2022/05/28 13:10:29;;;;;;;;;;;24.90;46.50;;;;;;5143042;27;20345;-80
2022/05/28 13:13:07;;;;;;;;;;;25.30;47.50;;;;;;5125030;27;19958;-81
2022/05/28 13:15:51;;;;;;;;;;;25.60;49.10;;;;;;5125025;27;19947;-81
2022/05/28 13:18:38;;;;;;;;;;;26.30;52.70;;;;;;5143770;27;19939;-82
2022/05/28 13:21:09;;;;;;;;;;;26.60;53.90;;;;;;5124997;27;19997;-81
2022/05/28 13:23:47;;;;;;;;;;;26.90;54.30;;;;;;5126063;27;20332;-82
2022/05/28 13:26:12;;;;;;;;;;;27.00;53.90;;;;;;5124921;27;19919;-81
2022/05/28 13:28:38;;;;;;;;;;;27.30;54.10;;;;;;5124410;27;19907;-82
2022/05/28 13:31:05;;;;;;;;;;;28.10;56.80;;;;;;5124533;27;19914;-82
2022/05/28 13:33:32;;;;;;;;;;;28.00;57.40;;;;;;5124890;27;20347;-81
2022/05/28 13:35:58;;;;;;;;;;;27.60;55.20;;;;;;5124033;27;19914;-80
2022/05/28 13:38:28;;;;;;;;;;;27.10;53.50;;;;;;5142736;27;19907;-81
2022/05/28 13:40:54;;;;;;;;;;;27.30;54.10;;;;;;5126491;27;19908;-82
2022/05/28 13:43:22;;;;;;;;;;;27.70;55.50;;;;;;5122094;28;20352;-81
2022/05/28 13:45:49;;;;;;;;;;;26.90;52.30;;;;;;5103351;28;20365;-81
2022/05/28 13:48:16;;;;;;;;;;;26.80;51.90;;;;;;5121856;28;19912;-82
2022/05/28 13:50:43;;;;;;;;;;;26.10;48.30;;;;;;5121273;28;19915;-80
2022/05/28 13:53:09;;;;;;;;;;;25.30;45.60;;;;;;5103520;28;20283;-80
2022/05/28 13:55:40;;;;;;;;;;;24.70;45.30;;;;;;5121941;28;20321;-81
2022/05/28 13:58:14;;;;;;;;;;;24.30;44.20;;;;;;5121491;28;19914;-81
2022/05/28 14:00:39;;;;;;;;;;;24.20;44.50;;;;;;5121197;28;19908;-82
2022/05/28 14:03:06;;;;;;;;;;;23.90;44.30;;;;;;5121703;28;20342;-81
2022/05/28 14:05:41;;;;;;;;;;;23.70;45.30;;;;;;5121214;28;19915;-80
2022/05/28 14:08:11;;;;;;;;;;;24.00;47.70;;;;;;5121291;28;20268;-81
2022/05/28 14:10:39;;;;;;;;;;;24.30;49.50;;;;;;5119115;28;19908;-80
2022/05/28 14:13:05;;;;;;;;;;;24.20;49.00;;;;;;5102701;28;19908;-81
2022/05/28 14:15:31;;;;;;;;;;;23.80;47.20;;;;;;5102375;28;19961;-81
2022/05/28 14:17:57;;;;;;;;;;;23.70;47.20;;;;;;5102260;28;19912;-81
2022/05/28 14:20:32;;;;;;;;;;;23.70;47.80;;;;;;5120332;28;20003;-81
2022/05/28 14:22:58;;;;;;;;;;;23.80;49.30;;;;;;5101317;28;19914;-81
2022/05/28 14:25:26;;;;;;;;;;;23.60;48.50;;;;;;5120039;28;19943;-81
2022/05/28 14:27:53;;;;;;;;;;;23.50;47.70;;;;;;5119624;28;20386;-81
2022/05/28 14:30:21;;;;;;;;;;;23.60;49.50;;;;;;5101341;28;20372;-81
2022/05/28 14:32:47;;;;;;;;;;;23.80;49.80;;;;;;5101873;27;19930;-80
2022/05/28 14:35:21;;;;;;;;;;;23.50;49.00;;;;;;5120358;27;20184;-80
2022/05/28 14:37:56;;;;;;;;;;;23.30;48.10;;;;;;5130676;27;20429;-80